sensor_id;sensor_type;location;lat;lon;timestamp;temperature;humidity
37844;DHT22;23930;57.632;18.292;2022-09-24T00:00:57;10.30;99.90
37844;DHT22;23930;57.632;18.292;2022-09-24T00:03:24;10.40;99.90
37844;DHT22;23930;57.632;18.292;2022-09-24T00:05:51;10.40;99.90
37844;DHT22;23930;57.632;18.292;2022-09-24T00:08:18;10.40;99.90
37844;DHT22;23930;57.632;18.292;2022-09-24T00:10:46;10.40;99.90
37844;DHT22;23930;57.632;18.292;2022-09-24T00:13:16;10.40;99.90
37844;DHT22;23930;57.632;18.292;2022-09-24T00:15:44;10.40;99.90
37844;DHT22;23930;57.632;18.292;2022-09-24T00:18:12;10.40;99.90
37844;DHT22;23930;57.632;18.292;2022-09-24T00:20:39;10.40;99.90
37844;DHT22;23930;57.632;18.292;2022-09-24T00:23:06;10.40;99.90
37844;DHT22;23930;57.632;18.292;2022-09-24T00:25:39;10.40;99.90
37844;DHT22;23930;57.632;18.292;2022-09-24T00:28:24;10.40;99.90
37844;DHT22;23930;57.632;18.292;2022-09-24T00:30:51;10.40;99.90
37844;DHT22;23930;57.632;18.292;2022-09-24T00:33:17;10.50;99.90
37844;DHT22;23930;57.632;18.292;2022-09-24T00:35:44;10.50;99.90
37844;DHT22;23930;57.632;18.292;2022-09-24T00:38:11;10.50;99.90
37844;DHT22;23930;57.632;18.292;2022-09-24T00:40:38;10.50;99.90
37844;DHT22;23930;57.632;18.292;2022-09-24T00:48:57;10.50;99.90
37844;DHT22;23930;57.632;18.292;2022-09-24T00:51:26;10.50;99.90
37844;DHT22;23930;57.632;18.292;2022-09-24T00:54:04;10.50;99.90
37844;DHT22;23930;57.632;18.292;2022-09-24T00:56:32;10.50;99.90
37844;DHT22;23930;57.632;18.292;2022-09-24T00:59:02;10.50;99.90
37844;DHT22;23930;57.632;18.292;2022-09-24T01:01:29;10.50;99.90
37844;DHT22;23930;57.632;18.292;2022-09-24T01:03:57;10.50;99.90
37844;DHT22;23930;57.632;18.292;2022-09-24T01:06:24;10.50;99.90
37844;DHT22;23930;57.632;18.292;2022-09-24T01:08:52;10.50;99.90
37844;DHT22;23930;57.632;18.292;2022-09-24T01:11:24;10.50;99.90
37844;DHT22;23930;57.632;18.292;2022-09-24T01:14:01;10.50;99.90
37844;DHT22;23930;57.632;18.292;2022-09-24T01:25:58;10.50;99.90
37844;DHT22;23930;57.632;18.292;2022-09-24T01:30:32;10.50;99.90
37844;DHT22;23930;57.632;18.292;2022-09-24T01:33:01;10.50;99.90
37844;DHT22;23930;57.632;18.292;2022-09-24T01:35:36;10.60;99.90
37844;DHT22;23930;57.632;18.292;2022-09-24T01:38:06;10.60;99.90
37844;DHT22;23930;57.632;18.292;2022-09-24T01:40:35;10.60;99.90
37844;DHT22;23930;57.632;18.292;2022-09-24T01:43:02;10.60;99.90
37844;DHT22;23930;57.632;18.292;2022-09-24T01:45:30;10.60;99.90
37844;DHT22;23930;57.632;18.292;2022-09-24T01:47:58;10.60;99.90
37844;DHT22;23930;57.632;18.292;2022-09-24T01:50:30;10.60;99.90
37844;DHT22;23930;57.632;18.292;2022-09-24T01:53:15;10.60;99.90
37844;DHT22;23930;57.632;18.292;2022-09-24T01:55:45;10.60;99.90
37844;DHT22;23930;57.632;18.292;2022-09-24T01:58:16;10.60;99.90
37844;DHT22;23930;57.632;18.292;2022-09-24T02:00:44;10.60;99.90
37844;DHT22;23930;57.632;18.292;2022-09-24T02:03:18;10.60;99.90
37844;DHT22;23930;57.632;18.292;2022-09-24T02:06:04;10.60;99.90
37844;DHT22;23930;57.632;18.292;2022-09-24T02:08:40;10.60;99.90
37844;DHT22;23930;57.632;18.292;2022-09-24T02:11:10;10.60;99.90
37844;DHT22;23930;57.632;18.292;2022-09-24T02:13:42;10.70;99.90
37844;DHT22;23930;57.632;18.292;2022-09-24T02:16:10;10.60;99.90
37844;DHT22;23930;57.632;18.292;2022-09-24T02:18:41;10.60;99.90
37844;DHT22;23930;57.632;18.292;2022-09-24T02:21:11;10.60;99.90
37844;DHT22;23930;57.632;18.292;2022-09-24T02:23:39;10.60;99.90
37844;DHT22;23930;57.632;18.292;2022-09-24T02:26:09;10.60;99.90
37844;DHT22;23930;57.632;18.292;2022-09-24T02:28:36;10.60;99.90
37844;DHT22;23930;57.632;18.292;2022-09-24T02:31:04;10.60;99.90
37844;DHT22;23930;57.632;18.292;2022-09-24T02:33:34;10.60;99.90
37844;DHT22;23930;57.632;18.292;2022-09-24T02:36:20;10.60;99.90
37844;DHT22;23930;57.632;18.292;2022-09-24T02:38:51;10.60;99.90
37844;DHT22;23930;57.632;18.292;2022-09-24T02:41:18;10.60;99.90
37844;DHT22;23930;57.632;18.292;2022-09-24T02:43:45;10.60;99.90
37844;DHT22;23930;57.632;18.292;2022-09-24T02:46:12;10.50;99.90
37844;DHT22;23930;57.632;18.292;2022-09-24T02:48:39;10.50;99.90
37844;DHT22;23930;57.632;18.292;2022-09-24T02:51:07;10.50;99.90
37844;DHT22;23930;57.632;18.292;2022-09-24T02:53:33;10.50;99.90
37844;DHT22;23930;57.632;18.292;2022-09-24T02:56:00;10.50;99.90
37844;DHT22;23930;57.632;18.292;2022-09-24T02:58:28;10.50;99.90
37844;DHT22;23930;57.632;18.292;2022-09-24T03:00:55;10.50;99.90
37844;DHT22;23930;57.632;18.292;2022-09-24T03:03:22;10.50;99.90
37844;DHT22;23930;57.632;18.292;2022-09-24T03:05:49;10.50;99.90
37844;DHT22;23930;57.632;18.292;2022-09-24T03:08:20;10.60;99.90
37844;DHT22;23930;57.632;18.292;2022-09-24T03:10:47;10.50;99.90
37844;DHT22;23930;57.632;18.292;2022-09-24T03:13:17;10.60;99.90
37844;DHT22;23930;57.632;18.292;2022-09-24T03:15:44;10.60;99.90
37844;DHT22;23930;57.632;18.292;2022-09-24T03:18:11;10.60;99.90
37844;DHT22;23930;57.632;18.292;2022-09-24T03:20:38;10.50;99.90
37844;DHT22;23930;57.632;18.292;2022-09-24T03:23:05;10.50;99.90
37844;DHT22;23930;57.632;18.292;2022-09-24T03:25:32;10.50;99.90
37844;DHT22;23930;57.632;18.292;2022-09-24T03:27:59;10.50;99.90
37844;DHT22;23930;57.632;18.292;2022-09-24T03:30:25;10.50;99.90
37844;DHT22;23930;57.632;18.292;2022-09-24T03:33:11;10.50;99.90
37844;DHT22;23930;57.632;18.292;2022-09-24T03:35:38;10.50;99.90
37844;DHT22;23930;57.632;18.292;2022-09-24T03:38:04;10.40;99.90
37844;DHT22;23930;57.632;18.292;2022-09-24T03:40:31;10.50;99.90
37844;DHT22;23930;57.632;18.292;2022-09-24T03:42:58;10.40;99.90
37844;DHT22;23930;57.632;18.292;2022-09-24T03:45:25;10.50;99.90
37844;DHT22;23930;57.632;18.292;2022-09-24T03:47:52;10.50;99.90
37844;DHT22;23930;57.632;18.292;2022-09-24T03:50:18;10.50;99.90
37844;DHT22;23930;57.632;18.292;2022-09-24T03:52:45;10.50;99.90
37844;DHT22;23930;57.632;18.292;2022-09-24T03:55:12;10.40;99.90
37844;DHT22;23930;57.632;18.292;2022-09-24T03:57:39;10.50;99.90
37844;DHT22;23930;57.632;18.292;2022-09-24T04:00:05;10.50;99.90
37844;DHT22;23930;57.632;18.292;2022-09-24T04:02:33;10.40;99.90
37844;DHT22;23930;57.632;18.292;2022-09-24T04:05:00;10.40;99.90
37844;DHT22;23930;57.632;18.292;2022-09-24T04:07:27;10.40;99.90
37844;DHT22;23930;57.632;18.292;2022-09-24T04:09:54;10.40;99.90
37844;DHT22;23930;57.632;18.292;2022-09-24T04:12:20;10.40;99.90
37844;DHT22;23930;57.632;18.292;2022-09-24T04:14:48;10.40;99.90
37844;DHT22;23930;57.632;18.292;2022-09-24T04:17:15;10.30;99.90
37844;DHT22;23930;57.632;18.292;2022-09-24T04:19:42;10.30;99.90
37844;DHT22;23930;57.632;18.292;2022-09-24T04:22:09;10.30;99.90
37844;DHT22;23930;57.632;18.292;2022-09-24T04:24:36;10.30;99.90
37844;DHT22;23930;57.632;18.292;2022-09-24T04:27:03;10.30;99.90
37844;DHT22;23930;57.632;18.292;2022-09-24T04:29:30;10.30;99.90
37844;DHT22;23930;57.632;18.292;2022-09-24T04:31:56;10.30;99.90
37844;DHT22;23930;57.632;18.292;2022-09-24T04:34:23;10.30;99.90
37844;DHT22;23930;57.632;18.292;2022-09-24T04:36:50;10.20;99.90
37844;DHT22;23930;57.632;18.292;2022-09-24T04:39:17;10.20;99.90
37844;DHT22;23930;57.632;18.292;2022-09-24T04:41:44;10.20;99.90
37844;DHT22;23930;57.632;18.292;2022-09-24T04:44:13;10.20;99.90
37844;DHT22;23930;57.632;18.292;2022-09-24T04:46:40;10.20;99.90
37844;DHT22;23930;57.632;18.292;2022-09-24T04:49:08;10.20;99.90
37844;DHT22;23930;57.632;18.292;2022-09-24T04:51:35;10.20;99.90
37844;DHT22;23930;57.632;18.292;2022-09-24T04:54:02;10.20;99.90
37844;DHT22;23930;57.632;18.292;2022-09-24T04:56:29;10.20;99.90
37844;DHT22;23930;57.632;18.292;2022-09-24T04:58:56;10.20;99.90
37844;DHT22;23930;57.632;18.292;2022-09-24T05:01:24;10.20;99.90
37844;DHT22;23930;57.632;18.292;2022-09-24T05:03:51;10.30;99.90
37844;DHT22;23930;57.632;18.292;2022-09-24T05:06:19;10.30;99.90
37844;DHT22;23930;57.632;18.292;2022-09-24T05:08:45;10.30;99.90
37844;DHT22;23930;57.632;18.292;2022-09-24T05:11:12;10.30;99.90
37844;DHT22;23930;57.632;18.292;2022-09-24T05:13:39;10.40;99.90
37844;DHT22;23930;57.632;18.292;2022-09-24T05:16:06;10.40;99.90
37844;DHT22;23930;57.632;18.292;2022-09-24T05:18:33;10.40;99.90
37844;DHT22;23930;57.632;18.292;2022-09-24T05:21:00;10.50;99.90
37844;DHT22;23930;57.632;18.292;2022-09-24T05:23:27;10.50;99.90
37844;DHT22;23930;57.632;18.292;2022-09-24T05:25:53;10.50;99.90
37844;DHT22;23930;57.632;18.292;2022-09-24T05:28:39;10.60;99.90
37844;DHT22;23930;57.632;18.292;2022-09-24T05:31:08;10.60;99.90
37844;DHT22;23930;57.632;18.292;2022-09-24T05:33:36;10.70;99.90
37844;DHT22;23930;57.632;18.292;2022-09-24T05:36:03;10.70;99.90
37844;DHT22;23930;57.632;18.292;2022-09-24T05:38:30;10.80;99.90
37844;DHT22;23930;57.632;18.292;2022-09-24T05:40:58;10.80;99.90
37844;DHT22;23930;57.632;18.292;2022-09-24T05:43:25;10.90;99.90
37844;DHT22;23930;57.632;18.292;2022-09-24T05:45:53;10.90;99.90
37844;DHT22;23930;57.632;18.292;2022-09-24T05:48:20;10.90;99.90
37844;DHT22;23930;57.632;18.292;2022-09-24T05:50:47;11.00;99.90
37844;DHT22;23930;57.632;18.292;2022-09-24T05:53:14;11.10;99.90
37844;DHT22;23930;57.632;18.292;2022-09-24T05:55:41;11.10;99.90
37844;DHT22;23930;57.632;18.292;2022-09-24T05:58:12;11.10;99.90
37844;DHT22;23930;57.632;18.292;2022-09-24T06:00:39;11.20;99.90
37844;DHT22;23930;57.632;18.292;2022-09-24T06:03:10;11.20;99.90
37844;DHT22;23930;57.632;18.292;2022-09-24T06:05:37;11.20;99.90
37844;DHT22;23930;57.632;18.292;2022-09-24T06:08:04;11.30;99.90
37844;DHT22;23930;57.632;18.292;2022-09-24T06:10:31;11.30;99.90
37844;DHT22;23930;57.632;18.292;2022-09-24T06:12:58;11.30;99.90
37844;DHT22;23930;57.632;18.292;2022-09-24T06:15:25;11.30;99.90
37844;DHT22;23930;57.632;18.292;2022-09-24T06:17:53;11.30;99.90
37844;DHT22;23930;57.632;18.292;2022-09-24T06:20:20;11.40;99.90
37844;DHT22;23930;57.632;18.292;2022-09-24T06:22:47;11.40;99.90
37844;DHT22;23930;57.632;18.292;2022-09-24T06:25:14;11.40;99.90
37844;DHT22;23930;57.632;18.292;2022-09-24T06:27:41;11.40;99.90
37844;DHT22;23930;57.632;18.292;2022-09-24T06:30:07;11.50;99.90
37844;DHT22;23930;57.632;18.292;2022-09-24T06:32:34;11.50;99.90
37844;DHT22;23930;57.632;18.292;2022-09-24T06:35:01;11.50;99.90
37844;DHT22;23930;57.632;18.292;2022-09-24T06:37:28;11.60;99.90
37844;DHT22;23930;57.632;18.292;2022-09-24T06:39:55;11.60;99.90
37844;DHT22;23930;57.632;18.292;2022-09-24T06:42:21;11.60;99.90
37844;DHT22;23930;57.632;18.292;2022-09-24T06:44:49;11.60;99.90
37844;DHT22;23930;57.632;18.292;2022-09-24T06:47:16;11.70;99.90
37844;DHT22;23930;57.632;18.292;2022-09-24T06:49:43;11.70;99.90
37844;DHT22;23930;57.632;18.292;2022-09-24T06:52:10;11.70;99.90
37844;DHT22;23930;57.632;18.292;2022-09-24T06:54:37;11.70;99.90
37844;DHT22;23930;57.632;18.292;2022-09-24T06:57:05;11.80;99.90
37844;DHT22;23930;57.632;18.292;2022-09-24T06:59:32;11.80;99.90
37844;DHT22;23930;57.632;18.292;2022-09-24T07:01:58;11.90;99.90
37844;DHT22;23930;57.632;18.292;2022-09-24T07:04:25;11.90;99.90
37844;DHT22;23930;57.632;18.292;2022-09-24T07:06:52;12.00;99.90
37844;DHT22;23930;57.632;18.292;2022-09-24T07:09:37;12.00;99.90
37844;DHT22;23930;57.632;18.292;2022-09-24T07:12:06;12.10;99.90
37844;DHT22;23930;57.632;18.292;2022-09-24T07:14:34;12.10;99.90
37844;DHT22;23930;57.632;18.292;2022-09-24T07:17:01;12.10;99.90
37844;DHT22;23930;57.632;18.292;2022-09-24T07:19:27;12.20;99.90
37844;DHT22;23930;57.632;18.292;2022-09-24T07:21:54;12.20;99.90
37844;DHT22;23930;57.632;18.292;2022-09-24T07:24:21;12.20;99.90
37844;DHT22;23930;57.632;18.292;2022-09-24T07:26:48;12.30;99.90
37844;DHT22;23930;57.632;18.292;2022-09-24T07:29:15;12.30;99.90
37844;DHT22;23930;57.632;18.292;2022-09-24T07:31:41;12.40;99.90
37844;DHT22;23930;57.632;18.292;2022-09-24T07:34:08;12.40;99.90
37844;DHT22;23930;57.632;18.292;2022-09-24T07:36:35;12.40;99.90
37844;DHT22;23930;57.632;18.292;2022-09-24T07:39:02;12.50;99.90
37844;DHT22;23930;57.632;18.292;2022-09-24T07:41:29;12.50;99.90
37844;DHT22;23930;57.632;18.292;2022-09-24T07:43:56;12.60;99.90
37844;DHT22;23930;57.632;18.292;2022-09-24T07:46:23;12.60;99.90
37844;DHT22;23930;57.632;18.292;2022-09-24T07:48:53;12.70;99.90
37844;DHT22;23930;57.632;18.292;2022-09-24T07:51:23;12.80;99.90
37844;DHT22;23930;57.632;18.292;2022-09-24T07:53:51;12.90;99.90
37844;DHT22;23930;57.632;18.292;2022-09-24T07:56:18;12.90;99.90
37844;DHT22;23930;57.632;18.292;2022-09-24T07:58:48;13.00;99.90
37844;DHT22;23930;57.632;18.292;2022-09-24T08:01:16;13.10;99.90
37844;DHT22;23930;57.632;18.292;2022-09-24T08:03:43;13.20;99.90
37844;DHT22;23930;57.632;18.292;2022-09-24T08:06:12;13.30;99.90
37844;DHT22;23930;57.632;18.292;2022-09-24T08:08:38;13.40;99.90
37844;DHT22;23930;57.632;18.292;2022-09-24T08:11:05;13.40;99.90
37844;DHT22;23930;57.632;18.292;2022-09-24T08:13:33;13.60;99.90
37844;DHT22;23930;57.632;18.292;2022-09-24T08:16:00;13.60;99.90
37844;DHT22;23930;57.632;18.292;2022-09-24T08:18:28;13.60;99.90
37844;DHT22;23930;57.632;18.292;2022-09-24T08:20:57;13.80;99.90
37844;DHT22;23930;57.632;18.292;2022-09-24T08:23:23;13.80;99.90
37844;DHT22;23930;57.632;18.292;2022-09-24T08:25:52;13.90;99.90
37844;DHT22;23930;57.632;18.292;2022-09-24T08:28:19;14.00;99.90
37844;DHT22;23930;57.632;18.292;2022-09-24T08:30:46;14.10;99.90
37844;DHT22;23930;57.632;18.292;2022-09-24T08:33:13;14.10;99.90
37844;DHT22;23930;57.632;18.292;2022-09-24T08:35:40;14.20;99.90
37844;DHT22;23930;57.632;18.292;2022-09-24T08:38:07;14.30;99.90
37844;DHT22;23930;57.632;18.292;2022-09-24T08:40:38;14.30;99.90
37844;DHT22;23930;57.632;18.292;2022-09-24T08:43:12;14.40;99.90
37844;DHT22;23930;57.632;18.292;2022-09-24T08:45:45;14.40;99.90
37844;DHT22;23930;57.632;18.292;2022-09-24T08:48:33;14.40;99.90
37844;DHT22;23930;57.632;18.292;2022-09-24T08:51:02;14.50;99.90
37844;DHT22;23930;57.632;18.292;2022-09-24T08:56:09;14.60;99.90
37844;DHT22;23930;57.632;18.292;2022-09-24T08:58:43;14.60;99.90
37844;DHT22;23930;57.632;18.292;2022-09-24T09:11:33;14.80;99.90
37844;DHT22;23930;57.632;18.292;2022-09-24T09:19:07;14.90;99.90
37844;DHT22;23930;57.632;18.292;2022-09-24T09:24:02;15.00;99.90
37844;DHT22;23930;57.632;18.292;2022-09-24T09:26:30;15.00;99.90
37844;DHT22;23930;57.632;18.292;2022-09-24T09:28:57;15.00;99.90
37844;DHT22;23930;57.632;18.292;2022-09-24T09:39:35;15.20;99.90
37844;DHT22;23930;57.632;18.292;2022-09-24T09:44:48;15.20;99.90
37844;DHT22;23930;57.632;18.292;2022-09-24T09:47:21;15.30;99.90
37844;DHT22;23930;57.632;18.292;2022-09-24T09:49:51;15.20;99.90
37844;DHT22;23930;57.632;18.292;2022-09-24T09:52:19;15.30;99.90
37844;DHT22;23930;57.632;18.292;2022-09-24T09:54:47;15.40;99.90
37844;DHT22;23930;57.632;18.292;2022-09-24T09:57:15;15.50;99.90
37844;DHT22;23930;57.632;18.292;2022-09-24T09:59:47;15.50;99.90
37844;DHT22;23930;57.632;18.292;2022-09-24T10:02:18;15.50;99.90
37844;DHT22;23930;57.632;18.292;2022-09-24T10:04:47;15.60;99.90
37844;DHT22;23930;57.632;18.292;2022-09-24T10:07:17;15.70;99.90
37844;DHT22;23930;57.632;18.292;2022-09-24T10:09:44;15.80;99.90
37844;DHT22;23930;57.632;18.292;2022-09-24T10:12:18;15.80;99.90
37844;DHT22;23930;57.632;18.292;2022-09-24T10:14:56;15.80;99.90
37844;DHT22;23930;57.632;18.292;2022-09-24T10:17:25;15.70;99.90
37844;DHT22;23930;57.632;18.292;2022-09-24T10:19:53;15.50;99.90
37844;DHT22;23930;57.632;18.292;2022-09-24T10:22:21;15.40;99.90
37844;DHT22;23930;57.632;18.292;2022-09-24T10:24:48;15.40;99.90
37844;DHT22;23930;57.632;18.292;2022-09-24T10:27:18;15.50;99.90
37844;DHT22;23930;57.632;18.292;2022-09-24T10:29:51;15.50;99.90
37844;DHT22;23930;57.632;18.292;2022-09-24T10:32:38;15.60;99.90
37844;DHT22;23930;57.632;18.292;2022-09-24T10:35:24;15.50;99.90
37844;DHT22;23930;57.632;18.292;2022-09-24T10:38:01;15.60;99.90
37844;DHT22;23930;57.632;18.292;2022-09-24T10:40:29;15.80;99.90
37844;DHT22;23930;57.632;18.292;2022-09-24T10:42:58;15.70;99.90
37844;DHT22;23930;57.632;18.292;2022-09-24T10:48:12;15.70;99.90
37844;DHT22;23930;57.632;18.292;2022-09-24T10:50:54;15.60;99.90
37844;DHT22;23930;57.632;18.292;2022-09-24T11:01:16;15.50;99.90
37844;DHT22;23930;57.632;18.292;2022-09-24T11:17:29;15.50;99.90
37844;DHT22;23930;57.632;18.292;2022-09-24T11:20:20;15.50;99.90
37844;DHT22;23930;57.632;18.292;2022-09-24T11:23:03;15.40;99.90
37844;DHT22;23930;57.632;18.292;2022-09-24T11:35:55;15.20;99.90
37844;DHT22;23930;57.632;18.292;2022-09-24T11:41:15;15.30;99.90
37844;DHT22;23930;57.632;18.292;2022-09-24T11:49:18;15.30;99.90
37844;DHT22;23930;57.632;18.292;2022-09-24T11:52:04;15.20;99.90
37844;DHT22;23930;57.632;18.292;2022-09-24T11:54:35;15.10;99.90
37844;DHT22;23930;57.632;18.292;2022-09-24T11:57:07;15.10;99.90
37844;DHT22;23930;57.632;18.292;2022-09-24T12:08:09;15.00;99.90
37844;DHT22;23930;57.632;18.292;2022-09-24T12:10:51;15.00;99.90
37844;DHT22;23930;57.632;18.292;2022-09-24T12:13:30;15.00;99.90
37844;DHT22;23930;57.632;18.292;2022-09-24T12:16:04;15.00;99.90
37844;DHT22;23930;57.632;18.292;2022-09-24T12:18:46;15.00;99.90
37844;DHT22;23930;57.632;18.292;2022-09-24T12:21:17;15.00;99.90
37844;DHT22;23930;57.632;18.292;2022-09-24T12:23:46;15.10;99.90
37844;DHT22;23930;57.632;18.292;2022-09-24T12:26:15;15.10;99.90
37844;DHT22;23930;57.632;18.292;2022-09-24T12:31:59;15.30;99.90
37844;DHT22;23930;57.632;18.292;2022-09-24T12:37:17;15.40;99.90
37844;DHT22;23930;57.632;18.292;2022-09-24T12:39:51;15.60;99.90
37844;DHT22;63793;57.632;18.292;2022-09-24T12:42:19;15.90;99.90
37844;DHT22;63793;57.632;18.292;2022-09-24T12:44:51;16.00;99.90
37844;DHT22;63793;57.632;18.292;2022-09-24T12:47:20;16.20;99.90
37844;DHT22;63793;57.632;18.292;2022-09-24T12:49:49;16.20;99.90
37844;DHT22;63793;57.632;18.292;2022-09-24T12:52:22;16.00;99.90
37844;DHT22;63793;57.632;18.292;2022-09-24T12:54:53;16.00;99.90
37844;DHT22;63793;57.632;18.292;2022-09-24T12:57:22;16.00;99.90
37844;DHT22;63793;57.632;18.292;2022-09-24T12:59:55;16.20;99.90
37844;DHT22;63793;57.632;18.292;2022-09-24T13:02:26;16.30;99.90
37844;DHT22;63793;57.632;18.292;2022-09-24T13:07:37;16.50;99.90
37844;DHT22;63793;57.632;18.292;2022-09-24T13:10:19;16.60;99.90
37844;DHT22;63793;57.632;18.292;2022-09-24T13:12:47;16.50;99.90
37844;DHT22;63793;57.632;18.292;2022-09-24T13:15:36;16.60;99.90
37844;DHT22;63793;57.632;18.292;2022-09-24T13:20:37;16.20;99.90
37844;DHT22;63793;57.632;18.292;2022-09-24T13:25:54;16.20;99.90
37844;DHT22;63793;57.632;18.292;2022-09-24T13:30:49;16.10;99.90
37844;DHT22;63793;57.632;18.292;2022-09-24T13:33:25;16.00;99.90
37844;DHT22;63793;57.632;18.292;2022-09-24T13:38:21;15.80;99.90
37844;DHT22;63793;57.632;18.292;2022-09-24T13:40:57;15.70;99.90
37844;DHT22;63793;57.632;18.292;2022-09-24T13:43:35;15.70;99.90
37844;DHT22;63793;57.632;18.292;2022-09-24T13:46:05;15.60;99.90
37844;DHT22;63793;57.632;18.292;2022-09-24T13:48:34;15.50;99.90
37844;DHT22;63793;57.632;18.292;2022-09-24T13:51:02;15.40;99.90
37844;DHT22;63793;57.632;18.292;2022-09-24T13:56:10;15.40;99.90
37844;DHT22;63793;57.632;18.292;2022-09-24T13:58:37;15.30;99.90
37844;DHT22;63793;57.632;18.292;2022-09-24T14:01:24;15.20;99.90
37844;DHT22;63793;57.632;18.292;2022-09-24T14:03:53;15.20;99.90
37844;DHT22;63793;57.632;18.292;2022-09-24T14:06:38;15.20;99.90
37844;DHT22;63793;57.632;18.292;2022-09-24T14:12:11;15.20;99.90
37844;DHT22;63793;57.632;18.292;2022-09-24T14:14:42;15.10;99.90
37844;DHT22;63793;57.632;18.292;2022-09-24T14:17:10;15.10;99.90
37844;DHT22;63793;57.632;18.292;2022-09-24T14:19:38;15.00;99.90
37844;DHT22;63793;57.632;18.292;2022-09-24T14:22:08;15.00;99.90
37844;DHT22;63793;57.632;18.292;2022-09-24T14:24:41;14.90;99.90
37844;DHT22;63793;57.632;18.292;2022-09-24T14:27:11;15.00;99.90
37844;DHT22;63793;57.632;18.292;2022-09-24T14:29:41;15.00;99.90
37844;DHT22;63793;57.632;18.292;2022-09-24T14:34:46;15.10;99.90
37844;DHT22;63793;57.632;18.292;2022-09-24T14:37:17;15.10;99.90
37844;DHT22;63793;57.632;18.292;2022-09-24T14:39:45;15.00;99.90
37844;DHT22;63793;57.632;18.292;2022-09-24T14:42:21;15.00;99.90
37844;DHT22;63793;57.632;18.292;2022-09-24T14:44:49;15.00;99.90
37844;DHT22;63793;57.632;18.292;2022-09-24T14:47:27;15.00;99.90
37844;DHT22;63793;57.632;18.292;2022-09-24T14:49:54;14.90;99.90
37844;DHT22;63793;57.632;18.292;2022-09-24T14:52:31;14.90;99.90
37844;DHT22;63793;57.632;18.292;2022-09-24T14:55:12;14.90;99.90
37844;DHT22;63793;57.632;18.292;2022-09-24T14:57:41;14.80;99.90
37844;DHT22;63793;57.632;18.292;2022-09-24T15:00:18;14.70;99.90
37844;DHT22;63793;57.632;18.292;2022-09-24T15:02:49;14.60;99.90
37844;DHT22;63793;57.632;18.292;2022-09-24T15:05:16;14.50;99.90
37844;DHT22;63793;57.632;18.292;2022-09-24T15:07:48;14.50;99.90
37844;DHT22;63793;57.632;18.292;2022-09-24T15:10:19;14.40;99.90
37844;DHT22;63793;57.632;18.292;2022-09-24T15:12:50;14.40;99.90
37844;DHT22;63793;57.632;18.292;2022-09-24T15:17:46;14.30;99.90
37844;DHT22;63793;57.632;18.292;2022-09-24T15:20:13;14.30;99.90
37844;DHT22;63793;57.632;18.292;2022-09-24T15:22:40;14.30;99.90
37844;DHT22;63793;57.632;18.292;2022-09-24T15:25:07;14.30;99.90
37844;DHT22;63793;57.632;18.292;2022-09-24T15:27:37;14.30;99.90
37844;DHT22;63793;57.632;18.292;2022-09-24T15:30:05;14.30;99.90
37844;DHT22;63793;57.632;18.292;2022-09-24T15:32:33;14.30;99.90
37844;DHT22;63793;57.632;18.292;2022-09-24T15:35:04;14.20;99.90
37844;DHT22;63793;57.632;18.292;2022-09-24T15:37:38;14.20;99.90
37844;DHT22;63793;57.632;18.292;2022-09-24T15:40:23;14.30;99.90
37844;DHT22;63793;57.632;18.292;2022-09-24T15:42:50;14.20;99.90
37844;DHT22;63793;57.632;18.292;2022-09-24T15:45:18;14.20;99.90
37844;DHT22;63793;57.632;18.292;2022-09-24T15:47:47;14.20;99.90
37844;DHT22;63793;57.632;18.292;2022-09-24T15:50:14;14.20;99.90
37844;DHT22;63793;57.632;18.292;2022-09-24T15:52:47;14.20;99.90
37844;DHT22;63793;57.632;18.292;2022-09-24T15:55:16;14.20;99.90
37844;DHT22;63793;57.632;18.292;2022-09-24T15:57:44;14.10;99.90
37844;DHT22;63793;57.632;18.292;2022-09-24T16:00:13;14.10;99.90
37844;DHT22;63793;57.632;18.292;2022-09-24T16:02:40;14.10;99.90
37844;DHT22;63793;57.632;18.292;2022-09-24T16:05:12;14.10;99.90
37844;DHT22;63793;57.632;18.292;2022-09-24T16:07:40;14.10;99.90
37844;DHT22;63793;57.632;18.292;2022-09-24T16:10:07;14.10;99.90
37844;DHT22;63793;57.632;18.292;2022-09-24T16:12:35;14.00;99.90
37844;DHT22;63793;57.632;18.292;2022-09-24T16:15:02;14.00;99.90
37844;DHT22;63793;57.632;18.292;2022-09-24T16:17:29;13.90;99.90
37844;DHT22;63793;57.632;18.292;2022-09-24T16:19:55;13.90;99.90
37844;DHT22;63793;57.632;18.292;2022-09-24T16:22:22;13.80;99.90
37844;DHT22;63793;57.632;18.292;2022-09-24T16:24:49;13.80;99.90
37844;DHT22;63793;57.632;18.292;2022-09-24T16:27:16;13.70;99.90
37844;DHT22;63793;57.632;18.292;2022-09-24T16:29:43;13.60;99.90
37844;DHT22;63793;57.632;18.292;2022-09-24T16:32:09;13.50;99.90
37844;DHT22;63793;57.632;18.292;2022-09-24T16:34:36;13.40;99.90
37844;DHT22;63793;57.632;18.292;2022-09-24T16:37:03;13.40;99.90
37844;DHT22;63793;57.632;18.292;2022-09-24T16:39:30;13.30;99.90
37844;DHT22;63793;57.632;18.292;2022-09-24T16:41:57;13.20;99.90
37844;DHT22;63793;57.632;18.292;2022-09-24T16:44:24;13.10;99.90
37844;DHT22;63793;57.632;18.292;2022-09-24T16:46:50;13.00;99.90
37844;DHT22;63793;57.632;18.292;2022-09-24T16:49:17;12.90;99.90
37844;DHT22;63793;57.632;18.292;2022-09-24T16:51:45;12.80;99.90
37844;DHT22;63793;57.632;18.292;2022-09-24T16:54:11;12.70;99.90
37844;DHT22;63793;57.632;18.292;2022-09-24T16:56:39;12.60;99.90
37844;DHT22;63793;57.632;18.292;2022-09-24T16:59:06;12.50;99.90
37844;DHT22;63793;57.632;18.292;2022-09-24T17:01:32;12.50;99.90
37844;DHT22;63793;57.632;18.292;2022-09-24T17:03:59;12.40;99.90
37844;DHT22;63793;57.632;18.292;2022-09-24T17:06:27;12.30;99.90
37844;DHT22;63793;57.632;18.292;2022-09-24T17:08:54;12.20;99.90
37844;DHT22;63793;57.632;18.292;2022-09-24T17:11:40;12.20;99.90
37844;DHT22;63793;57.632;18.292;2022-09-24T17:14:08;12.10;99.90
37844;DHT22;63793;57.632;18.292;2022-09-24T17:16:38;12.10;99.90
37844;DHT22;63793;57.632;18.292;2022-09-24T17:19:05;12.00;99.90
37844;DHT22;63793;57.632;18.292;2022-09-24T17:21:34;11.90;99.90
37844;DHT22;63793;57.632;18.292;2022-09-24T17:24:01;11.90;99.90
37844;DHT22;63793;57.632;18.292;2022-09-24T17:26:28;11.80;99.90
37844;DHT22;63793;57.632;18.292;2022-09-24T17:28:54;11.70;99.90
37844;DHT22;63793;57.632;18.292;2022-09-24T17:31:22;11.70;99.90
37844;DHT22;63793;57.632;18.292;2022-09-24T17:33:59;11.60;99.90
37844;DHT22;63793;57.632;18.292;2022-09-24T17:36:27;11.50;99.90
37844;DHT22;63793;57.632;18.292;2022-09-24T17:38:54;11.50;99.90